createdAt,value
2023-04-08T00:01:02.813Z,10.88
2023-04-08T00:06:08.304Z,10.00
2023-04-08T00:11:11.475Z,10.27
2023-04-08T00:16:14.719Z,11.40
2023-04-08T00:21:20.926Z,10.02
2023-04-08T00:26:24.137Z,9.45
2023-04-08T00:31:27.312Z,10.68
2023-04-08T00:36:31.895Z,9.73
2023-04-08T00:41:35.007Z,11.23
2023-04-08T00:46:40.683Z,10.95
2023-04-08T00:51:45.476Z,10.15
2023-04-08T00:56:48.626Z,9.27
2023-04-08T01:01:55.656Z,10.27
2023-04-08T01:07:04.206Z,9.27
2023-04-08T01:12:09.054Z,10.32
2023-04-08T01:17:12.217Z,10.57
2023-04-08T01:22:24.313Z,10.20
2023-04-08T01:27:29.679Z,11.23
2023-04-08T01:32:33.495Z,11.68
2023-04-08T01:37:36.936Z,10.30
2023-04-08T01:42:41.708Z,11.15
2023-04-08T01:47:47.334Z,11.52
2023-04-08T01:52:53.734Z,10.93
2023-04-08T01:58:00.841Z,10.45
2023-04-08T02:03:07.173Z,10.60
2023-04-08T02:08:10.605Z,9.40
2023-04-08T02:13:15.064Z,10.15
2023-04-08T02:18:23.404Z,9.85
2023-04-08T02:23:29.393Z,8.32
2023-04-08T02:28:35.597Z,9.57
2023-04-08T02:33:39.864Z,8.60
2023-04-08T02:38:43.014Z,9.32
2023-04-08T02:43:48.079Z,8.52
2023-04-08T02:48:52.656Z,8.57
2023-04-08T02:53:55.842Z,8.18
2023-04-08T02:59:00.335Z,8.40
2023-04-08T03:04:03.507Z,9.88
2023-04-08T03:09:07.135Z,9.32
2023-04-08T03:14:11.665Z,9.93
2023-04-08T03:19:14.986Z,10.18
2023-04-08T03:24:18.072Z,8.20
2023-04-08T03:29:22.542Z,7.88
2023-04-08T03:34:25.992Z,8.25
2023-04-08T03:39:29.150Z,7.22
2023-04-08T03:44:33.632Z,8.18
2023-04-08T03:49:36.725Z,6.63
2023-04-08T03:54:39.929Z,6.20
2023-04-08T03:59:44.431Z,7.43
2023-04-08T04:04:47.593Z,6.80
2023-04-08T04:09:54.154Z,7.97
2023-04-08T04:14:58.620Z,7.00
2023-04-08T04:20:01.668Z,7.82
2023-04-08T04:25:04.805Z,7.50
2023-04-08T04:30:10.556Z,8.38
2023-04-08T04:35:14.142Z,7.47
2023-04-08T04:40:17.314Z,6.90
2023-04-08T04:45:21.789Z,6.13
2023-04-08T04:50:25.026Z,7.10
2023-04-08T04:55:28.210Z,6.85
2023-04-08T05:00:32.649Z,6.60
2023-04-08T05:05:35.913Z,7.30
2023-04-08T05:10:39.002Z,6.90
2023-04-08T05:15:43.483Z,7.97
2023-04-08T05:20:46.766Z,7.65
2023-04-08T05:25:49.910Z,7.47
2023-04-08T05:30:54.710Z,8.48
2023-04-08T05:35:57.853Z,8.77
2023-04-08T05:41:01.273Z,7.57
2023-04-08T05:46:08.972Z,6.90
2023-04-08T05:51:14.638Z,6.55
2023-04-08T05:56:17.811Z,6.38
2023-04-08T06:01:22.483Z,5.72
2023-04-08T06:06:26.116Z,6.57
2023-04-08T06:11:29.239Z,7.63
2023-04-08T06:16:33.736Z,6.13
2023-04-08T06:21:36.885Z,6.60
2023-04-08T06:26:39.969Z,6.07
2023-04-08T06:31:44.530Z,6.60
2023-04-08T06:36:48.371Z,7.47
2023-04-08T06:41:52.363Z,8.30
2023-04-08T06:47:11.912Z,10.40
2023-04-08T06:52:15.300Z,9.43
2023-04-08T06:57:18.474Z,8.75
2023-04-08T07:02:23.487Z,10.00
2023-04-08T07:07:26.677Z,11.13
2023-04-08T07:12:29.798Z,10.75
2023-04-08T07:17:34.284Z,11.30
2023-04-08T07:22:37.432Z,10.18
2023-04-08T07:27:40.566Z,10.02
2023-04-08T07:32:45.061Z,13.43
2023-04-08T07:37:48.190Z,10.45
2023-04-08T07:42:51.381Z,9.30
2023-04-08T07:47:56.049Z,9.82
2023-04-08T07:52:59.166Z,8.55
2023-04-08T07:58:02.477Z,8.35
2023-04-08T08:03:07.160Z,7.88
2023-04-08T08:08:11.784Z,7.43
2023-04-08T08:13:17.332Z,8.38
2023-04-08T08:18:21.868Z,25.33
2023-04-08T08:23:25.056Z,9.05
2023-04-08T08:28:28.261Z,7.88
2023-04-08T08:33:32.841Z,8.00
2023-04-08T08:38:35.939Z,7.20
2023-04-08T08:43:39.478Z,7.53
2023-04-08T08:48:44.229Z,7.00
2023-04-08T08:53:47.322Z,6.43
2023-04-08T08:58:50.581Z,7.72
2023-04-08T09:04:07.586Z,7.30
2023-04-08T09:09:13.816Z,7.28
2023-04-08T09:14:20.753Z,6.97
2023-04-08T09:19:25.275Z,6.93
2023-04-08T09:24:29.330Z,7.63
2023-04-08T09:29:35.250Z,7.13
2023-04-08T09:34:40.432Z,8.43
2023-04-08T09:39:43.531Z,7.57
2023-04-08T09:44:47.361Z,8.43
2023-04-08T09:49:54.319Z,8.77
2023-04-08T09:55:00.881Z,7.90
2023-04-08T10:00:06.636Z,9.32
2023-04-08T10:05:18.519Z,9.07
2023-04-08T10:10:22.052Z,9.55
2023-04-08T10:15:26.449Z,19.52
2023-04-08T10:20:47.481Z,10.07
2023-04-08T10:25:51.980Z,9.63
2023-04-08T10:30:56.061Z,9.82
2023-04-08T10:36:01.212Z,9.02
2023-04-08T10:41:05.805Z,8.98
2023-04-08T10:46:11.794Z,9.77
2023-04-08T10:51:17.664Z,9.48
2023-04-08T10:56:22.482Z,9.18
2023-04-08T11:01:25.817Z,9.32
2023-04-08T11:06:30.632Z,8.30
2023-04-08T11:11:35.984Z,7.85
2023-04-08T11:16:39.461Z,8.45
2023-04-08T11:21:42.730Z,7.53
2023-04-08T11:26:47.249Z,7.95
2023-04-08T11:31:51.468Z,7.50
2023-04-08T11:36:55.009Z,7.93
2023-04-08T11:41:59.637Z,7.57
2023-04-08T11:47:03.134Z,7.63
2023-04-08T11:52:06.274Z,6.88
2023-04-08T11:57:10.960Z,6.55
2023-04-08T12:02:14.246Z,7.65
2023-04-08T12:07:17.719Z,7.10
2023-04-08T12:12:22.173Z,6.53
2023-04-08T12:17:25.537Z,7.13
2023-04-08T12:22:28.883Z,6.28
2023-04-08T12:27:33.806Z,6.80
2023-04-08T12:32:37.080Z,6.78
2023-04-08T12:37:40.216Z,6.55
2023-04-08T12:42:44.818Z,16.52
2023-04-08T12:47:48.121Z,7.03
2023-04-08T12:52:51.526Z,5.75
2023-04-08T12:57:56.687Z,6.15
2023-04-08T13:02:59.862Z,6.03
2023-04-08T13:08:03.054Z,5.47
2023-04-08T13:13:07.550Z,4.55
2023-04-08T13:18:10.788Z,5.53
2023-04-08T13:23:15.307Z,6.13
2023-04-08T13:28:19.830Z,6.18
2023-04-08T13:33:23.255Z,7.32
2023-04-08T13:38:26.445Z,7.53
2023-04-08T13:43:30.905Z,8.25
2023-04-08T13:48:34.021Z,8.07
2023-04-08T13:53:37.433Z,7.80
2023-04-08T13:58:42.017Z,7.32
2023-04-08T14:03:45.485Z,6.78
2023-04-08T14:08:48.673Z,7.22
2023-04-08T14:13:53.216Z,6.28
2023-04-08T14:18:56.393Z,6.38
2023-04-08T14:24:01.993Z,6.82
2023-04-08T14:29:07.696Z,7.28
2023-04-08T14:34:10.860Z,8.68
2023-04-08T14:39:13.927Z,9.50
2023-04-08T14:44:18.352Z,10.07
2023-04-08T14:49:21.499Z,12.70
2023-04-08T14:54:24.580Z,10.70
2023-04-08T14:59:29.130Z,10.43
2023-04-08T15:04:32.391Z,10.65
2023-04-08T15:09:35.557Z,10.88
2023-04-08T15:14:40.071Z,11.95
2023-04-08T15:19:43.156Z,12.13
2023-04-08T15:24:47.954Z,13.95
2023-04-08T15:29:52.506Z,13.77
2023-04-08T15:34:55.632Z,13.20
2023-04-08T15:39:59.071Z,14.70
2023-04-08T15:45:04.377Z,17.02
2023-04-08T15:50:08.061Z,16.25
2023-04-08T15:55:11.893Z,14.82
2023-04-08T16:00:16.837Z,17.27
2023-04-08T16:05:20.872Z,16.50
2023-04-08T16:10:23.951Z,17.20
2023-04-08T16:15:28.538Z,16.25
2023-04-08T16:20:31.751Z,16.00
2023-04-08T16:25:34.887Z,16.67
2023-04-08T16:30:42.878Z,16.00
2023-04-08T16:35:46.542Z,17.05
2023-04-08T16:40:49.740Z,16.20
2023-04-08T16:45:54.449Z,16.00
2023-04-08T16:50:57.806Z,15.93
2023-04-08T16:56:01.194Z,15.73
2023-04-08T17:01:09.405Z,14.98
2023-04-08T17:06:13.631Z,15.45
2023-04-08T17:11:16.835Z,15.63
2023-04-08T17:16:21.854Z,15.30
2023-04-08T17:21:24.961Z,15.52
2023-04-08T17:26:28.214Z,15.77
2023-04-08T17:31:33.076Z,16.05
2023-04-08T17:36:36.228Z,15.32
2023-04-08T17:41:41.105Z,16.52
2023-04-08T17:46:46.493Z,16.02
2023-04-08T17:51:49.692Z,17.85
2023-04-08T17:56:52.870Z,17.05
2023-04-08T18:01:57.672Z,17.15
2023-04-08T18:07:03.889Z,16.90
2023-04-08T18:12:07.311Z,17.40
2023-04-08T18:17:11.901Z,18.88
2023-04-08T18:22:14.977Z,18.98
2023-04-08T18:27:18.149Z,19.10
2023-04-08T18:32:22.630Z,20.90
2023-04-08T18:37:25.854Z,21.17
2023-04-08T18:42:28.966Z,22.13
2023-04-08T18:47:33.499Z,23.15
2023-04-08T18:52:37.399Z,22.60
2023-04-08T18:57:40.545Z,22.80
2023-04-08T19:02:45.281Z,22.38
2023-04-08T19:07:48.377Z,24.13
2023-04-08T19:12:51.489Z,23.17
2023-04-08T19:17:56.442Z,22.83
2023-04-08T19:22:59.766Z,23.88
2023-04-08T19:28:02.958Z,23.10
2023-04-08T19:33:07.847Z,24.83
2023-04-08T19:38:12.065Z,24.05
2023-04-08T19:43:15.252Z,24.80
2023-04-08T19:48:20.624Z,24.00
2023-04-08T19:53:23.741Z,25.85
2023-04-08T19:58:27.256Z,26.33
2023-04-08T20:03:32.214Z,27.20
2023-04-08T20:08:35.601Z,26.88
2023-04-08T20:13:39.923Z,27.15
2023-04-08T20:18:44.429Z,25.70
2023-04-08T20:23:47.490Z,25.67
2023-04-08T20:28:50.846Z,25.70
2023-04-08T20:33:55.576Z,25.25
2023-04-08T20:38:58.681Z,22.38
2023-04-08T20:44:01.778Z,22.98
2023-04-08T20:49:06.644Z,22.45
2023-04-08T20:54:10.084Z,21.15
2023-04-08T20:59:13.217Z,21.83
2023-04-08T21:04:19.046Z,25.38
2023-04-08T21:09:22.156Z,21.77
2023-04-08T21:14:25.252Z,24.40
2023-04-08T21:19:29.699Z,25.95
2023-04-08T21:24:32.791Z,26.17
2023-04-08T21:29:36.006Z,24.33
2023-04-08T21:34:41.025Z,23.73
2023-04-08T21:39:44.074Z,23.77
2023-04-08T21:44:47.136Z,24.13
2023-04-08T21:49:51.612Z,24.80
2023-04-08T21:54:54.735Z,26.25
2023-04-08T21:59:57.764Z,24.98
2023-04-08T22:05:02.283Z,26.30
2023-04-08T22:10:06.026Z,25.15
2023-04-08T22:15:09.754Z,26.10
2023-04-08T22:20:14.345Z,25.50
2023-04-08T22:25:17.519Z,26.77
2023-04-08T22:30:21.454Z,25.73
2023-04-08T22:35:25.915Z,26.50
2023-04-08T22:40:29.101Z,26.27
2023-04-08T22:45:32.219Z,26.02
2023-04-08T22:50:36.700Z,24.85
2023-04-08T22:55:39.799Z,22.42
2023-04-08T23:00:42.931Z,25.58
2023-04-08T23:05:47.497Z,23.08
2023-04-08T23:10:50.931Z,22.38
2023-04-08T23:15:54.034Z,22.52
2023-04-08T23:20:58.900Z,24.02
2023-04-08T23:26:01.992Z,23.23
2023-04-08T23:31:05.582Z,23.33
2023-04-08T23:36:10.438Z,24.33
2023-04-08T23:41:13.600Z,26.52
2023-04-08T23:46:16.794Z,24.05
2023-04-08T23:51:21.310Z,25.83
2023-04-08T23:56:24.414Z,26.00
